createdAt,value
2023-04-22T00:01:09.139Z,20.80
2023-04-22T00:03:39.030Z,21.17
2023-04-22T00:06:07.885Z,21.23
2023-04-22T00:08:36.222Z,20.70
2023-04-22T00:11:04.812Z,21.33
2023-04-22T00:13:33.282Z,20.30
2023-04-22T00:16:03.154Z,20.83
2023-04-22T00:18:31.585Z,21.03
2023-04-22T00:20:59.946Z,20.63
2023-04-22T00:23:28.333Z,21.83
2023-04-22T00:25:56.733Z,21.00
2023-04-22T00:28:25.104Z,22.97
2023-04-22T00:30:53.592Z,23.50
2023-04-22T00:33:23.442Z,23.03
2023-04-22T00:35:51.875Z,22.33
2023-04-22T00:38:20.320Z,21.60
2023-04-22T00:40:48.779Z,22.33
2023-04-22T00:43:17.648Z,22.57
2023-04-22T00:45:46.231Z,22.53
2023-04-22T00:48:15.071Z,22.43
2023-04-22T00:50:44.819Z,23.50
2023-04-22T00:53:13.218Z,22.23
2023-04-22T00:55:41.793Z,22.77
2023-04-22T00:58:10.183Z,22.20
2023-04-22T01:00:38.588Z,23.37
2023-04-22T01:03:07.332Z,22.90
2023-04-22T01:05:35.879Z,21.93
2023-04-22T01:08:05.796Z,22.47
2023-04-22T01:10:34.178Z,23.80
2023-04-22T01:13:02.484Z,23.73
2023-04-22T01:15:30.967Z,23.60
2023-04-22T01:17:59.440Z,22.90
2023-04-22T01:20:29.659Z,24.20
2023-04-22T01:22:58.220Z,23.67
2023-04-22T01:25:27.999Z,24.70
2023-04-22T01:27:56.495Z,25.20
2023-04-22T01:30:24.911Z,25.23
2023-04-22T01:32:53.346Z,25.60
2023-04-22T01:35:21.953Z,24.63
2023-04-22T01:37:50.547Z,24.27
2023-04-22T01:40:19.834Z,24.53
2023-04-22T01:42:49.918Z,24.27
2023-04-22T01:45:18.503Z,24.70
2023-04-22T01:47:46.913Z,23.97
2023-04-22T01:50:15.411Z,24.17
2023-04-22T01:52:43.863Z,24.70
2023-04-22T01:55:12.269Z,23.43
2023-04-22T01:57:40.854Z,24.90
2023-04-22T02:00:11.276Z,24.50
2023-04-22T02:02:39.834Z,24.70
2023-04-22T02:05:08.739Z,24.27
2023-04-22T02:07:37.432Z,24.83
2023-04-22T02:10:05.855Z,24.73
2023-04-22T02:12:34.232Z,25.30
2023-04-22T02:15:03.063Z,25.57
2023-04-22T02:17:34.270Z,25.60
2023-04-22T02:20:03.000Z,26.03
2023-04-22T02:22:31.651Z,26.63
2023-04-22T02:25:00.002Z,28.60
2023-04-22T02:27:28.517Z,27.67
2023-04-22T02:29:56.865Z,29.30
2023-04-22T02:32:25.417Z,28.57
2023-04-22T02:34:55.160Z,29.73
2023-04-22T02:37:23.923Z,30.23
2023-04-22T02:39:52.281Z,30.97
2023-04-22T02:42:20.906Z,31.17
2023-04-22T02:44:49.269Z,30.20
2023-04-22T02:47:17.696Z,31.20
2023-04-22T02:49:46.140Z,30.60
2023-04-22T02:52:15.853Z,31.73
2023-04-22T02:54:44.328Z,29.93
2023-04-22T02:57:12.641Z,30.37
2023-04-22T02:59:41.428Z,30.57
2023-04-22T03:02:10.677Z,31.53
2023-04-22T03:04:39.164Z,30.30
2023-04-22T03:07:07.674Z,30.97
2023-04-22T03:09:37.548Z,30.63
2023-04-22T03:12:06.252Z,28.63
2023-04-22T03:14:34.632Z,30.73
2023-04-22T03:17:03.379Z,29.80
2023-04-22T03:19:31.930Z,31.13
2023-04-22T03:22:00.376Z,31.00
2023-04-22T03:24:28.750Z,32.30
2023-04-22T03:26:58.585Z,33.07
2023-04-22T03:29:26.963Z,33.57
2023-04-22T03:31:55.544Z,32.97
2023-04-22T03:34:23.887Z,32.13
2023-04-22T03:36:52.238Z,32.90
2023-04-22T03:39:20.734Z,32.97
2023-04-22T03:41:49.190Z,33.40
2023-04-22T03:44:19.088Z,33.10
2023-04-22T03:46:47.473Z,33.20
2023-04-22T03:49:16.398Z,33.37
2023-04-22T03:51:44.866Z,35.57
2023-04-22T03:54:13.255Z,34.07
2023-04-22T03:56:41.652Z,34.90
2023-04-22T03:59:10.099Z,34.37
2023-04-22T04:01:40.038Z,35.47
2023-04-22T04:04:08.580Z,35.60
2023-04-22T04:06:37.206Z,35.73
2023-04-22T04:09:05.682Z,35.83
2023-04-22T04:11:34.077Z,34.90
2023-04-22T04:14:03.465Z,36.03
2023-04-22T04:16:31.991Z,36.30
2023-04-22T04:19:01.812Z,37.07
2023-04-22T04:21:33.548Z,35.57
2023-04-22T04:24:01.964Z,37.53
2023-04-22T04:26:30.744Z,36.97
2023-04-22T04:28:59.557Z,37.57
2023-04-22T04:31:28.070Z,37.10
2023-04-22T04:33:57.371Z,37.13
2023-04-22T04:36:29.539Z,37.83
2023-04-22T04:38:57.982Z,37.13
2023-04-22T04:41:28.154Z,39.50
2023-04-22T04:43:56.603Z,39.67
2023-04-22T04:46:25.026Z,39.23
2023-04-22T04:48:54.215Z,37.97
2023-04-22T04:51:22.540Z,37.17
2023-04-22T04:53:52.400Z,38.90
2023-04-22T04:56:20.796Z,38.37
2023-04-22T04:58:49.144Z,37.40
2023-04-22T05:01:17.581Z,38.77
2023-04-22T05:03:46.240Z,38.90
2023-04-22T05:06:14.899Z,38.13
2023-04-22T05:08:43.357Z,37.83
2023-04-22T05:11:13.036Z,39.43
2023-04-22T05:13:41.446Z,38.50
2023-04-22T05:16:10.190Z,37.73
2023-04-22T05:18:40.370Z,39.13
2023-04-22T05:21:09.466Z,38.03
2023-04-22T05:23:37.834Z,38.50
2023-04-22T05:26:06.373Z,39.30
2023-04-22T05:28:36.114Z,37.73
2023-04-22T05:31:04.482Z,37.90
2023-04-22T05:33:33.067Z,38.03
2023-04-22T05:36:01.482Z,37.10
2023-04-22T05:38:29.911Z,37.00
2023-04-22T05:40:58.571Z,38.10
2023-04-22T05:43:27.648Z,36.93
2023-04-22T05:45:57.441Z,38.13
2023-04-22T05:48:25.864Z,37.07
2023-04-22T05:50:54.600Z,38.77
2023-04-22T05:53:23.126Z,37.13
2023-04-22T05:55:52.022Z,37.67
2023-04-22T05:58:20.374Z,37.70
2023-04-22T06:00:48.800Z,38.60
2023-04-22T06:03:18.948Z,37.40
2023-04-22T06:05:47.421Z,38.30
2023-04-22T06:08:16.168Z,39.37
2023-04-22T06:10:44.656Z,37.17
2023-04-22T06:13:13.000Z,37.77
2023-04-22T06:15:41.545Z,37.67
2023-04-22T06:18:10.006Z,37.80
2023-04-22T06:20:39.753Z,37.53
2023-04-22T06:23:08.255Z,37.83
2023-04-22T06:25:36.579Z,37.63
2023-04-22T06:28:05.043Z,36.90
2023-04-22T06:30:33.403Z,37.77
2023-04-22T06:33:01.802Z,36.20
2023-04-22T06:35:30.182Z,36.53
2023-04-22T06:38:00.024Z,36.50
2023-04-22T06:40:28.505Z,36.37
2023-04-22T06:42:56.880Z,36.97
2023-04-22T06:45:25.232Z,35.93
2023-04-22T06:47:54.509Z,34.27
2023-04-22T06:50:30.589Z,36.27
2023-04-22T06:53:00.514Z,35.70
2023-04-22T06:55:28.978Z,36.23
2023-04-22T06:57:57.436Z,35.30
2023-04-22T07:00:26.371Z,34.47
2023-04-22T07:02:54.975Z,34.40
2023-04-22T07:05:23.571Z,34.17
2023-04-22T07:07:51.880Z,34.20
2023-04-22T07:10:21.656Z,31.93
2023-04-22T07:12:50.036Z,33.80
2023-04-22T07:15:18.702Z,33.47
2023-04-22T07:17:47.167Z,30.60
2023-04-22T07:20:17.403Z,30.33
2023-04-22T07:22:45.797Z,29.50
2023-04-22T07:25:17.252Z,30.07
2023-04-22T07:27:47.059Z,31.40
2023-04-22T07:30:15.689Z,27.80
2023-04-22T07:32:44.172Z,28.90
2023-04-22T07:35:12.714Z,28.47
2023-04-22T07:37:41.300Z,26.30
2023-04-22T07:40:12.042Z,27.60
2023-04-22T07:42:40.662Z,26.07
2023-04-22T07:45:10.905Z,26.80
2023-04-22T07:47:39.428Z,26.90
2023-04-22T07:50:09.548Z,26.40
2023-04-22T07:52:38.120Z,24.77
2023-04-22T07:55:07.291Z,24.73
2023-04-22T07:57:38.918Z,23.63
2023-04-22T08:00:08.189Z,23.40
2023-04-22T08:02:38.157Z,22.90
2023-04-22T08:05:07.161Z,22.40
2023-04-22T08:07:35.737Z,21.70
2023-04-22T08:10:04.689Z,21.27
2023-04-22T08:12:33.658Z,21.10
2023-04-22T08:15:02.047Z,21.50
2023-04-22T08:17:30.575Z,21.57
2023-04-22T08:20:00.319Z,20.20
2023-04-22T08:22:28.715Z,19.53
2023-04-22T08:24:57.081Z,19.87
2023-04-22T08:27:25.588Z,20.23
2023-04-22T08:29:54.026Z,18.50
2023-04-22T08:32:25.017Z,19.37
2023-04-22T08:34:57.540Z,18.50
2023-04-22T08:37:31.437Z,18.37
2023-04-22T08:39:59.841Z,17.73
2023-04-22T08:42:28.234Z,17.97
2023-04-22T08:44:57.012Z,17.37
2023-04-22T08:47:25.546Z,16.63
2023-04-22T08:49:56.547Z,14.83
2023-04-22T08:52:25.015Z,14.90
2023-04-22T08:54:54.765Z,13.83
2023-04-22T08:57:26.251Z,14.77
2023-04-22T08:59:55.523Z,15.27
2023-04-22T09:02:24.365Z,14.80
2023-04-22T09:04:53.557Z,16.00
2023-04-22T09:07:23.643Z,14.97
2023-04-22T09:09:52.175Z,15.20
2023-04-22T09:12:22.218Z,14.07
2023-04-22T09:14:50.589Z,13.20
2023-04-22T09:17:19.176Z,13.93
2023-04-22T09:19:47.671Z,12.97
2023-04-22T09:22:16.299Z,14.03
2023-04-22T09:24:46.009Z,11.47
2023-04-22T09:27:14.380Z,11.47
2023-04-22T09:29:44.126Z,14.00
2023-04-22T09:32:12.832Z,13.83
2023-04-22T09:34:47.584Z,15.13
2023-04-22T09:37:16.026Z,13.47
2023-04-22T09:39:44.634Z,13.80
2023-04-22T09:42:12.977Z,13.27
2023-04-22T09:44:41.428Z,12.67
2023-04-22T09:47:12.158Z,13.23
2023-04-22T09:49:40.875Z,12.60
2023-04-22T09:52:10.526Z,13.40
2023-04-22T09:54:39.373Z,12.30
2023-04-22T09:57:13.663Z,11.57
2023-04-22T09:59:42.342Z,10.37
2023-04-22T10:02:12.386Z,9.13
2023-04-22T10:04:40.948Z,9.70
2023-04-22T10:07:09.444Z,9.47
2023-04-22T10:09:38.153Z,9.97
2023-04-22T10:12:06.870Z,11.80
2023-04-22T10:14:37.878Z,12.43
2023-04-22T10:17:10.537Z,12.37
2023-04-22T10:19:40.675Z,12.50
2023-04-22T10:22:10.578Z,12.83
2023-04-22T10:24:39.029Z,14.17
2023-04-22T10:27:08.435Z,14.33
2023-04-22T10:29:38.566Z,13.00
2023-04-22T10:32:10.235Z,13.60
2023-04-22T10:34:40.812Z,13.13
2023-04-22T10:37:09.564Z,13.70
2023-04-22T10:39:38.495Z,13.13
2023-04-22T10:42:10.007Z,14.23
2023-04-22T10:44:48.670Z,17.33
2023-04-22T10:47:27.125Z,20.87
2023-04-22T10:50:10.456Z,22.63
2023-04-22T10:52:40.568Z,22.83
2023-04-22T10:55:09.686Z,24.73
2023-04-22T10:57:40.348Z,24.27
2023-04-22T11:00:25.214Z,24.97
2023-04-22T11:02:54.176Z,25.13
2023-04-22T11:05:25.901Z,24.87
2023-04-22T11:07:56.300Z,26.07
2023-04-22T11:10:44.815Z,27.37
2023-04-22T11:13:14.080Z,27.50
2023-04-22T11:15:42.916Z,26.10
2023-04-22T11:18:12.054Z,25.43
2023-04-22T11:20:40.541Z,26.83
2023-04-22T11:23:10.406Z,26.93
2023-04-22T11:25:38.814Z,26.27
2023-04-22T11:28:07.509Z,27.30
2023-04-22T11:30:35.917Z,26.33
2023-04-22T11:33:04.387Z,26.80
2023-04-22T11:35:33.382Z,27.00
2023-04-22T11:38:02.282Z,27.43
2023-04-22T11:40:33.936Z,27.73
2023-04-22T11:43:05.017Z,28.17
2023-04-22T11:45:33.931Z,27.73
2023-04-22T11:48:04.275Z,30.27
2023-04-22T11:50:33.287Z,29.33
2023-04-22T11:53:02.765Z,30.10
2023-04-22T11:55:33.264Z,29.23
2023-04-22T11:58:02.060Z,30.67
2023-04-22T12:00:32.296Z,29.83
2023-04-22T12:03:01.447Z,30.03
2023-04-22T12:05:39.628Z,30.23
2023-04-22T12:08:09.057Z,31.57
2023-04-22T12:10:42.772Z,31.07
2023-04-22T12:13:11.240Z,31.20
2023-04-22T12:15:43.795Z,32.43
2023-04-22T12:18:13.178Z,31.10
2023-04-22T12:20:41.579Z,31.77
2023-04-22T12:23:16.194Z,32.10
2023-04-22T12:25:45.915Z,31.40
2023-04-22T12:28:14.367Z,33.93
2023-04-22T12:30:42.829Z,33.13
2023-04-22T12:33:11.636Z,34.10
2023-04-22T12:35:40.256Z,33.87
2023-04-22T12:38:08.970Z,34.23
2023-04-22T12:40:37.415Z,33.60
2023-04-22T12:43:08.018Z,34.40
2023-04-22T12:45:36.411Z,35.63
2023-04-22T12:48:04.784Z,33.93
2023-04-22T12:50:33.208Z,34.67
2023-04-22T12:53:01.543Z,36.37
2023-04-22T12:55:30.121Z,33.40
2023-04-22T12:57:58.560Z,34.70
2023-04-22T13:00:28.375Z,33.47
2023-04-22T13:02:57.293Z,34.10
2023-04-22T13:05:26.547Z,35.30
2023-04-22T13:10:28.194Z,36.53
2023-04-22T13:13:09.743Z,36.03
2023-04-22T13:15:47.025Z,35.70
2023-04-22T13:18:16.109Z,35.53
2023-04-22T13:20:44.657Z,35.27
2023-04-22T13:23:14.389Z,35.53
2023-04-22T13:25:42.793Z,35.63
2023-04-22T13:28:12.370Z,35.53
2023-04-22T13:30:40.894Z,36.30
2023-04-22T13:33:10.752Z,36.13
2023-04-22T13:35:39.098Z,36.17
2023-04-22T13:38:07.563Z,37.27
2023-04-22T13:40:35.979Z,38.00
2023-04-22T13:43:04.488Z,38.27
2023-04-22T13:45:32.887Z,36.80
2023-04-22T13:48:01.463Z,36.33
2023-04-22T13:50:31.334Z,36.83
2023-04-22T13:52:59.725Z,38.13
2023-04-22T13:55:28.205Z,36.73
2023-04-22T13:57:57.163Z,39.20
2023-04-22T14:00:25.674Z,39.10
2023-04-22T14:02:54.159Z,39.20
2023-04-22T14:05:22.564Z,40.30
2023-04-22T14:07:52.415Z,40.17
2023-04-22T14:10:22.178Z,40.77
2023-04-22T14:12:50.815Z,39.43
2023-04-22T14:15:19.336Z,40.73
2023-04-22T14:17:49.506Z,39.83
2023-04-22T14:20:18.035Z,37.27
2023-04-22T14:22:46.587Z,36.67
2023-04-22T14:25:16.358Z,34.77
2023-04-22T14:27:45.082Z,32.20
2023-04-22T14:30:14.258Z,32.20
2023-04-22T14:32:42.673Z,36.30
2023-04-22T14:35:11.556Z,33.93
2023-04-22T14:37:57.544Z,34.53
2023-04-22T14:40:28.174Z,34.63
2023-04-22T14:42:56.680Z,35.50
2023-04-22T14:45:25.288Z,38.10
2023-04-22T14:47:55.867Z,39.20
2023-04-22T14:50:24.347Z,41.50
2023-04-22T14:52:52.712Z,39.80
2023-04-22T14:55:24.248Z,38.70
2023-04-22T14:57:53.967Z,39.83
2023-04-22T15:00:22.416Z,39.83
2023-04-22T15:02:51.021Z,39.97
2023-04-22T15:05:19.470Z,39.80
2023-04-22T15:07:48.067Z,40.63
2023-04-22T15:10:16.907Z,40.23
2023-04-22T15:12:46.732Z,39.83
2023-04-22T15:15:16.225Z,38.50
2023-04-22T15:17:44.790Z,39.10
2023-04-22T15:20:13.492Z,38.73
2023-04-22T15:22:42.004Z,40.27
2023-04-22T15:25:10.783Z,37.13
2023-04-22T15:27:39.218Z,36.93
2023-04-22T15:30:11.170Z,35.90
2023-04-22T15:32:40.231Z,36.87
2023-04-22T15:35:09.182Z,38.13
2023-04-22T15:37:37.617Z,38.93
2023-04-22T15:40:07.785Z,37.63
2023-04-22T15:42:36.320Z,35.17
2023-04-22T15:45:04.980Z,33.93
2023-04-22T15:47:35.043Z,35.80
2023-04-22T15:50:06.748Z,36.03
2023-04-22T15:52:35.484Z,30.70
2023-04-22T15:55:04.350Z,31.70
2023-04-22T15:57:35.177Z,31.93
2023-04-22T16:00:11.834Z,32.10
2023-04-22T16:02:42.974Z,33.03
2023-04-22T16:05:11.987Z,32.77
2023-04-22T16:07:40.821Z,31.63
2023-04-22T16:10:10.331Z,31.90
2023-04-22T16:12:38.893Z,30.83
2023-04-22T16:15:08.062Z,29.77
2023-04-22T16:17:36.751Z,29.33
2023-04-22T16:20:07.523Z,30.47
2023-04-22T16:22:36.692Z,29.77
2023-04-22T16:25:05.288Z,29.87
2023-04-22T16:27:33.809Z,28.80
2023-04-22T16:30:02.363Z,27.40
2023-04-22T16:32:30.944Z,27.87
2023-04-22T16:34:59.494Z,25.27
2023-04-22T16:37:29.454Z,24.40
2023-04-22T16:39:57.958Z,24.77
2023-04-22T16:42:26.443Z,24.67
2023-04-22T16:44:54.996Z,25.90
2023-04-22T16:47:23.487Z,24.87
2023-04-22T16:49:52.162Z,23.10
2023-04-22T16:52:20.677Z,22.40
2023-04-22T16:54:51.649Z,22.27
2023-04-22T16:57:20.161Z,22.83
2023-04-22T16:59:48.584Z,22.57
2023-04-22T17:02:17.152Z,22.00
2023-04-22T17:04:45.548Z,23.30
2023-04-22T17:07:14.199Z,21.93
2023-04-22T17:09:42.896Z,23.50
2023-04-22T17:12:13.002Z,22.93
2023-04-22T17:14:41.387Z,23.27
2023-04-22T17:17:09.983Z,22.87
2023-04-22T17:19:38.481Z,22.40
2023-04-22T17:22:07.074Z,22.53
2023-04-22T17:24:35.503Z,21.63
2023-04-22T17:27:04.746Z,23.53
2023-04-22T17:29:34.524Z,23.27
2023-04-22T17:32:03.090Z,22.80
2023-04-22T17:34:31.552Z,22.70
2023-04-22T17:37:00.112Z,24.90
2023-04-22T17:39:28.886Z,24.23
2023-04-22T17:41:58.334Z,24.80
2023-04-22T17:44:26.857Z,24.97
2023-04-22T17:46:56.744Z,24.20
2023-04-22T17:49:25.377Z,24.80
2023-04-22T17:51:53.811Z,24.90
2023-04-22T17:54:25.509Z,24.13
2023-04-22T17:56:53.902Z,24.17
2023-04-22T17:59:22.413Z,24.27
2023-04-22T18:01:50.933Z,24.70
2023-04-22T18:04:21.332Z,24.37
2023-04-22T18:06:49.756Z,25.60
2023-04-22T18:09:18.396Z,24.43
2023-04-22T18:11:49.868Z,25.50
2023-04-22T18:14:20.822Z,25.23
2023-04-22T18:16:49.681Z,25.07
2023-04-22T18:19:18.422Z,25.23
2023-04-22T18:21:59.157Z,24.23
2023-04-22T18:24:28.461Z,24.13
2023-04-22T18:26:56.948Z,26.53
2023-04-22T18:29:26.186Z,25.07
2023-04-22T18:31:54.618Z,25.20
2023-04-22T18:34:23.669Z,26.33
2023-04-22T18:36:53.395Z,25.93
2023-04-22T18:39:22.378Z,25.97
2023-04-22T18:41:51.003Z,26.63
2023-04-22T18:44:19.674Z,27.07
2023-04-22T18:46:48.104Z,27.20
2023-04-22T18:49:16.910Z,26.13
2023-04-22T18:51:47.532Z,26.43
2023-04-22T18:54:17.461Z,26.47
2023-04-22T18:56:46.110Z,26.27
2023-04-22T18:59:14.580Z,25.03
2023-04-22T19:01:43.392Z,25.73
2023-04-22T19:04:12.508Z,26.27
2023-04-22T19:06:41.484Z,24.83
2023-04-22T19:09:09.920Z,25.37
2023-04-22T19:11:39.898Z,25.23
2023-04-22T19:14:08.336Z,25.23
2023-04-22T19:16:37.059Z,24.90
2023-04-22T19:19:05.634Z,24.50
2023-04-22T19:21:34.119Z,22.47
2023-04-22T19:24:02.519Z,23.73
2023-04-22T19:26:31.296Z,23.33
2023-04-22T19:29:01.092Z,23.87
2023-04-22T19:31:29.740Z,25.60
2023-04-22T19:33:58.159Z,24.47
2023-04-22T19:36:28.171Z,26.20
2023-04-22T19:38:56.679Z,24.97
2023-04-22T19:41:25.193Z,26.93
2023-04-22T19:43:55.597Z,26.40
2023-04-22T19:46:25.724Z,26.90
2023-04-22T19:48:54.447Z,28.30
2023-04-22T19:51:26.149Z,29.63
2023-04-22T19:53:54.798Z,29.83
2023-04-22T19:56:23.966Z,29.73
2023-04-22T19:58:52.393Z,31.33
2023-04-22T20:01:21.346Z,31.10
2023-04-22T20:03:52.399Z,31.50
2023-04-22T20:06:22.851Z,30.67
2023-04-22T20:08:54.271Z,30.63
2023-04-22T20:11:23.305Z,31.37
2023-04-22T20:13:52.055Z,32.03
2023-04-22T20:16:21.048Z,31.80
2023-04-22T20:18:54.213Z,31.83
2023-04-22T20:21:22.717Z,32.13
2023-04-22T20:23:52.020Z,32.93
2023-04-22T20:26:20.936Z,33.23
2023-04-22T20:28:49.954Z,33.80
2023-04-22T20:31:19.117Z,34.17
2023-04-22T20:33:47.758Z,33.33
2023-04-22T20:36:17.577Z,33.17
2023-04-22T20:38:47.437Z,32.80
2023-04-22T20:41:18.180Z,32.87
2023-04-22T20:43:46.999Z,32.43
2023-04-22T20:46:15.583Z,32.77
2023-04-22T20:48:43.954Z,32.20
2023-04-22T20:51:12.751Z,31.23
2023-04-22T20:53:43.017Z,31.83
2023-04-22T20:56:11.478Z,31.40
2023-04-22T20:58:39.992Z,31.03
2023-04-22T21:01:09.412Z,31.30
2023-04-22T21:03:38.731Z,30.73
2023-04-22T21:06:08.108Z,31.77
2023-04-22T21:08:36.488Z,31.20
2023-04-22T21:11:06.706Z,31.43
2023-04-22T21:13:35.400Z,31.00
2023-04-22T21:16:08.369Z,31.67
2023-04-22T21:18:36.943Z,32.20
2023-04-22T21:21:05.442Z,30.40
2023-04-22T21:23:34.199Z,31.53
2023-04-22T21:26:03.139Z,31.27
2023-04-22T21:28:33.166Z,32.30
2023-04-22T21:31:01.931Z,32.70
2023-04-22T21:33:32.939Z,32.10
2023-04-22T21:36:01.448Z,33.57
2023-04-22T21:38:30.430Z,33.30
2023-04-22T21:40:58.893Z,33.33
2023-04-22T21:43:27.470Z,33.80
2023-04-22T21:45:57.680Z,34.40
2023-04-22T21:48:32.600Z,34.47
2023-04-22T21:51:01.192Z,36.10
2023-04-22T21:53:29.475Z,35.50
2023-04-22T21:55:57.853Z,36.37
2023-04-22T21:58:26.398Z,36.20
2023-04-22T22:00:56.038Z,36.73
2023-04-22T22:03:25.873Z,36.50
2023-04-22T22:05:54.405Z,34.10
2023-04-22T22:08:22.874Z,35.80
2023-04-22T22:10:51.235Z,35.13
2023-04-22T22:13:19.718Z,36.43
2023-04-22T22:15:48.174Z,35.83
2023-04-22T22:18:16.737Z,34.67
2023-04-22T22:20:46.761Z,36.10
2023-04-22T22:23:15.172Z,34.67
2023-04-22T22:25:43.545Z,33.97
2023-04-22T22:28:15.119Z,36.63
2023-04-22T22:30:46.886Z,34.30
2023-04-22T22:33:15.341Z,35.23
2023-04-22T22:35:43.983Z,35.03
2023-04-22T22:38:13.849Z,33.67
2023-04-22T22:40:42.464Z,33.53
2023-04-22T22:43:14.700Z,34.53
2023-04-22T22:45:43.159Z,32.03
2023-04-22T22:48:11.579Z,31.63
2023-04-22T22:50:40.162Z,30.53
2023-04-22T22:53:12.606Z,31.47
2023-04-22T22:55:42.340Z,32.13
2023-04-22T22:58:10.747Z,30.33
2023-04-22T23:00:39.024Z,30.80
2023-04-22T23:03:07.818Z,30.63
2023-04-22T23:05:36.466Z,28.70
2023-04-22T23:08:04.863Z,30.50
2023-04-22T23:10:33.480Z,29.47
2023-04-22T23:13:03.357Z,31.43
2023-04-22T23:15:31.807Z,30.13
2023-04-22T23:18:00.256Z,31.27
2023-04-22T23:20:29.130Z,31.80
2023-04-22T23:22:57.521Z,32.10
2023-04-22T23:25:26.244Z,31.53
2023-04-22T23:27:54.803Z,32.97
2023-04-22T23:30:25.397Z,32.17
2023-04-22T23:32:53.883Z,32.87
2023-04-22T23:35:22.427Z,34.40
2023-04-22T23:37:50.842Z,33.57
2023-04-22T23:40:19.586Z,35.60
2023-04-22T23:42:48.337Z,34.83
2023-04-22T23:45:17.146Z,34.47
2023-04-22T23:47:46.957Z,36.10
2023-04-22T23:50:16.068Z,37.50
2023-04-22T23:52:44.447Z,36.30
2023-04-22T23:55:13.987Z,37.13
2023-04-22T23:57:42.776Z,37.77
